X  SluitMETAR luchtvaart weer gegevens      EDLV Weeze Airport

Temperatuur

25°C Temperatuur

17°C Dauwpunt

61% Vochtigheid



Wind

14 KM/U

 9 MPH

 4 M/S

 8 KTS



150°
Zuid Zuid
Oost
Huidig weer

Helder Helder
Luchtdruk 1013.92 (hPa) - 29.94 (in)
Zicht 6.2 (mi) - 10 (km)
Vliegveld
Vliegveld code EDLV

Locatie Weeze Airport 103 (km)

Metar:
EDLV 151620Z 15008KT CAVOK 25/17 Q1014

Tijd: 15-08-2020 18:20